sensor_id;sensor_type;location;lat;lon;timestamp;pressure;altitude;pressure_sealevel;temperature;humidity
54369;BME280;40266;52.434;17.056;2023-02-12T00:04:22;102116.06;;;4.98;100.00
54369;BME280;40266;52.434;17.056;2023-02-12T00:18:50;102140.98;;;4.97;100.00
54369;BME280;40266;52.434;17.056;2023-02-12T00:22:17;102145.65;;;4.97;100.00
54369;BME280;40266;52.434;17.056;2023-02-12T00:36:06;102152.77;;;4.92;100.00
54369;BME280;40266;52.434;17.056;2023-02-12T00:39:28;102155.52;;;4.92;100.00
54369;BME280;40266;52.434;17.056;2023-02-12T00:43:18;102162.94;;;4.90;100.00
54369;BME280;40266;52.434;17.056;2023-02-12T01:01:33;102192.84;;;4.83;100.00
54369;BME280;40266;52.434;17.056;2023-02-12T01:05:26;102201.41;;;4.80;100.00
54369;BME280;40266;52.434;17.056;2023-02-12T01:16:31;102208.77;;;4.78;100.00
54369;BME280;40266;52.434;17.056;2023-02-12T01:23:47;102218.55;;;4.75;100.00
54369;BME280;40266;52.434;17.056;2023-02-12T01:34:49;102233.73;;;4.74;100.00
54369;BME280;40266;52.434;17.056;2023-02-12T01:38:15;102246.41;;;4.75;100.00
54369;BME280;40266;52.434;17.056;2023-02-12T01:48:51;102252.94;;;4.73;100.00
54369;BME280;40266;52.434;17.056;2023-02-12T02:03:13;102247.88;;;4.66;100.00
54369;BME280;40266;52.434;17.056;2023-02-12T02:06:01;102255.63;;;4.65;100.00
54369;BME280;40266;52.434;17.056;2023-02-12T02:08:45;102256.21;;;4.62;100.00
54369;BME280;40266;52.434;17.056;2023-02-12T02:11:29;102262.20;;;4.60;100.00
54369;BME280;40266;52.434;17.056;2023-02-12T02:14:31;102264.57;;;4.58;100.00
54369;BME280;40266;52.434;17.056;2023-02-12T02:32:17;102266.77;;;4.41;100.00
54369;BME280;40266;52.434;17.056;2023-02-12T02:43:50;102283.66;;;4.33;100.00
54369;BME280;40266;52.434;17.056;2023-02-12T02:46:39;102287.78;;;4.33;100.00
54369;BME280;40266;52.434;17.056;2023-02-12T02:49:30;102292.56;;;4.31;100.00
54369;BME280;40266;52.434;17.056;2023-02-12T02:52:21;102296.32;;;4.30;100.00
54369;BME280;40266;52.434;17.056;2023-02-12T02:55:08;102291.08;;;4.28;100.00
54369;BME280;40266;52.434;17.056;2023-02-12T02:58:11;102288.61;;;4.27;100.00
54369;BME280;40266;52.434;17.056;2023-02-12T03:04:04;102295.54;;;4.22;100.00
54369;BME280;40266;52.434;17.056;2023-02-12T03:07:03;102295.25;;;4.19;100.00
54369;BME280;40266;52.434;17.056;2023-02-12T03:10:05;102295.50;;;4.16;100.00
54369;BME280;40266;52.434;17.056;2023-02-12T03:13:15;102297.13;;;4.13;100.00
54369;BME280;40266;52.434;17.056;2023-02-12T03:16:25;102296.69;;;4.10;100.00
54369;BME280;40266;52.434;17.056;2023-02-12T03:19:18;102300.78;;;4.09;100.00
54369;BME280;40266;52.434;17.056;2023-02-12T03:22:21;102310.38;;;4.06;100.00
54369;BME280;40266;52.434;17.056;2023-02-12T03:28:00;102318.86;;;4.02;100.00
54369;BME280;40266;52.434;17.056;2023-02-12T03:36:48;102332.87;;;3.97;100.00
54369;BME280;40266;52.434;17.056;2023-02-12T03:42:55;102340.16;;;3.93;100.00
54369;BME280;40266;52.434;17.056;2023-02-12T03:45:45;102344.25;;;3.92;100.00
54369;BME280;40266;52.434;17.056;2023-02-12T03:48:43;102350.73;;;3.89;100.00
54369;BME280;40266;52.434;17.056;2023-02-12T03:51:34;102357.22;;;3.87;100.00
54369;BME280;40266;52.434;17.056;2023-02-12T03:54:20;102363.55;;;3.86;100.00
54369;BME280;40266;52.434;17.056;2023-02-12T03:57:13;102367.67;;;3.85;100.00
54369;BME280;40266;52.434;17.056;2023-02-12T04:00:01;102366.42;;;3.84;100.00
54369;BME280;40266;52.434;17.056;2023-02-12T04:02:55;102368.52;;;3.84;100.00
54369;BME280;40266;52.434;17.056;2023-02-12T04:05:38;102374.39;;;3.84;100.00
54369;BME280;40266;52.434;17.056;2023-02-12T04:08:21;102374.16;;;3.82;100.00
54369;BME280;40266;52.434;17.056;2023-02-12T04:20:19;102393.42;;;3.71;100.00
54369;BME280;40266;52.434;17.056;2023-02-12T04:32:19;102405.05;;;3.54;100.00
54369;BME280;40266;52.434;17.056;2023-02-12T04:38:21;102411.53;;;3.48;100.00
54369;BME280;40266;52.434;17.056;2023-02-12T04:41:07;102411.39;;;3.44;100.00
54369;BME280;40266;52.434;17.056;2023-02-12T04:43:50;102422.52;;;3.42;100.00
54369;BME280;40266;52.434;17.056;2023-02-12T04:46:33;102423.60;;;3.38;100.00
54369;BME280;40266;52.434;17.056;2023-02-12T04:49:17;102428.79;;;3.34;100.00
54369;BME280;40266;52.434;17.056;2023-02-12T04:52:00;102430.57;;;3.31;100.00
54369;BME280;40266;52.434;17.056;2023-02-12T04:54:43;102429.05;;;3.28;100.00
54369;BME280;40266;52.434;17.056;2023-02-12T04:57:26;102429.06;;;3.24;100.00
54369;BME280;40266;52.434;17.056;2023-02-12T05:00:13;102431.52;;;3.21;100.00
54369;BME280;40266;52.434;17.056;2023-02-12T05:02:56;102437.61;;;3.17;100.00
54369;BME280;40266;52.434;17.056;2023-02-12T05:05:39;102442.31;;;3.14;100.00
54369;BME280;40266;52.434;17.056;2023-02-12T05:08:22;102437.90;;;3.12;100.00
54369;BME280;40266;52.434;17.056;2023-02-12T05:11:06;102439.00;;;3.10;100.00
54369;BME280;40266;52.434;17.056;2023-02-12T05:13:51;102440.59;;;3.06;100.00
54369;BME280;40266;52.434;17.056;2023-02-12T05:16:34;102442.52;;;3.03;100.00
54369;BME280;40266;52.434;17.056;2023-02-12T05:19:17;102445.33;;;2.99;100.00
54369;BME280;40266;52.434;17.056;2023-02-12T05:22:00;102455.73;;;2.97;100.00
54369;BME280;40266;52.434;17.056;2023-02-12T05:24:43;102457.10;;;2.92;100.00
54369;BME280;40266;52.434;17.056;2023-02-12T05:27:27;102465.19;;;2.88;100.00
54369;BME280;40266;52.434;17.056;2023-02-12T05:30:10;102469.39;;;2.85;100.00
54369;BME280;40266;52.434;17.056;2023-02-12T05:32:53;102470.73;;;2.81;100.00
54369;BME280;40266;52.434;17.056;2023-02-12T05:35:36;102481.63;;;2.77;100.00
54369;BME280;40266;52.434;17.056;2023-02-12T05:38:20;102488.17;;;2.72;100.00
54369;BME280;40266;52.434;17.056;2023-02-12T05:41:05;102484.98;;;2.70;100.00
54369;BME280;40266;52.434;17.056;2023-02-12T05:43:49;102493.52;;;2.69;100.00
54369;BME280;40266;52.434;17.056;2023-02-12T05:46:32;102495.83;;;2.66;100.00
54369;BME280;40266;52.434;17.056;2023-02-12T05:49:15;102494.89;;;2.64;100.00
54369;BME280;40266;52.434;17.056;2023-02-12T05:51:58;102496.84;;;2.62;100.00
54369;BME280;40266;52.434;17.056;2023-02-12T05:54:48;102506.94;;;2.60;100.00
54369;BME280;40266;52.434;17.056;2023-02-12T05:57:32;102517.56;;;2.58;100.00
54369;BME280;40266;52.434;17.056;2023-02-12T06:00:15;102518.69;;;2.57;100.00
54369;BME280;40266;52.434;17.056;2023-02-12T06:02:58;102525.63;;;2.53;100.00
54369;BME280;40266;52.434;17.056;2023-02-12T06:05:41;102528.80;;;2.51;100.00
54369;BME280;40266;52.434;17.056;2023-02-12T06:08:24;102533.95;;;2.51;100.00
54369;BME280;40266;52.434;17.056;2023-02-12T06:11:09;102537.41;;;2.51;100.00
54369;BME280;40266;52.434;17.056;2023-02-12T06:13:52;102534.94;;;2.49;100.00
54369;BME280;40266;52.434;17.056;2023-02-12T06:16:35;102538.70;;;2.49;100.00
54369;BME280;40266;52.434;17.056;2023-02-12T06:19:19;102545.38;;;2.48;100.00
54369;BME280;40266;52.434;17.056;2023-02-12T06:22:02;102548.58;;;2.46;100.00
54369;BME280;40266;52.434;17.056;2023-02-12T06:24:44;102551.67;;;2.46;100.00
54369;BME280;40266;52.434;17.056;2023-02-12T06:27:27;102562.51;;;2.45;100.00
54369;BME280;40266;52.434;17.056;2023-02-12T06:30:10;102565.06;;;2.44;100.00
54369;BME280;40266;52.434;17.056;2023-02-12T06:32:54;102566.48;;;2.42;100.00
54369;BME280;40266;52.434;17.056;2023-02-12T06:35:38;102571.60;;;2.41;100.00
54369;BME280;40266;52.434;17.056;2023-02-12T06:38:22;102575.03;;;2.41;100.00
54369;BME280;40266;52.434;17.056;2023-02-12T06:41:04;102578.17;;;2.41;100.00
54369;BME280;40266;52.434;17.056;2023-02-12T06:43:47;102579.94;;;2.42;100.00
54369;BME280;40266;52.434;17.056;2023-02-12T06:46:30;102582.69;;;2.42;100.00
54369;BME280;40266;52.434;17.056;2023-02-12T06:49:13;102585.33;;;2.43;100.00
54369;BME280;40266;52.434;17.056;2023-02-12T06:51:56;102592.52;;;2.45;100.00
54369;BME280;40266;52.434;17.056;2023-02-12T06:54:39;102593.88;;;2.49;100.00
54369;BME280;40266;52.434;17.056;2023-02-12T06:57:22;102597.00;;;2.49;100.00
54369;BME280;40266;52.434;17.056;2023-02-12T07:00:06;102596.71;;;2.50;100.00
54369;BME280;40266;52.434;17.056;2023-02-12T07:02:53;102597.39;;;2.50;100.00
54369;BME280;40266;52.434;17.056;2023-02-12T07:05:39;102602.48;;;2.52;100.00
54369;BME280;40266;52.434;17.056;2023-02-12T07:08:23;102604.65;;;2.54;100.00
54369;BME280;40266;52.434;17.056;2023-02-12T07:11:06;102608.67;;;2.55;100.00
54369;BME280;40266;52.434;17.056;2023-02-12T07:13:49;102612.89;;;2.57;100.00
54369;BME280;40266;52.434;17.056;2023-02-12T07:16:31;102609.71;;;2.59;100.00
54369;BME280;40266;52.434;17.056;2023-02-12T07:19:15;102610.37;;;2.62;100.00
54369;BME280;40266;52.434;17.056;2023-02-12T07:21:59;102609.52;;;2.62;100.00
54369;BME280;40266;52.434;17.056;2023-02-12T07:24:42;102611.09;;;2.63;100.00
54369;BME280;40266;52.434;17.056;2023-02-12T07:27:27;102617.59;;;2.65;100.00
54369;BME280;40266;52.434;17.056;2023-02-12T07:30:10;102621.96;;;2.66;100.00
54369;BME280;40266;52.434;17.056;2023-02-12T07:32:53;102628.77;;;2.68;100.00
54369;BME280;40266;52.434;17.056;2023-02-12T07:35:36;102630.73;;;2.69;100.00
54369;BME280;40266;52.434;17.056;2023-02-12T07:38:19;102633.74;;;2.72;100.00
54369;BME280;40266;52.434;17.056;2023-02-12T07:44:08;102635.39;;;2.73;100.00
54369;BME280;40266;52.434;17.056;2023-02-12T07:46:52;102640.80;;;2.75;100.00
54369;BME280;40266;52.434;17.056;2023-02-12T07:49:34;102639.95;;;2.71;100.00
54369;BME280;40266;52.434;17.056;2023-02-12T07:52:18;102642.91;;;2.68;100.00
54369;BME280;40266;52.434;17.056;2023-02-12T07:55:01;102645.70;;;2.69;100.00
54369;BME280;40266;52.434;17.056;2023-02-12T07:57:44;102653.83;;;2.65;100.00
54369;BME280;40266;52.434;17.056;2023-02-12T08:00:27;102646.52;;;2.64;100.00
54369;BME280;40266;52.434;17.056;2023-02-12T08:03:10;102652.98;;;2.66;100.00
54369;BME280;40266;52.434;17.056;2023-02-12T08:05:52;102647.86;;;2.67;100.00
54369;BME280;40266;52.434;17.056;2023-02-12T08:08:36;102644.80;;;2.68;100.00
54369;BME280;40266;52.434;17.056;2023-02-12T08:11:21;102645.98;;;2.67;100.00
54369;BME280;40266;52.434;17.056;2023-02-12T08:14:05;102647.21;;;2.71;100.00
54369;BME280;40266;52.434;17.056;2023-02-12T08:16:49;102650.45;;;2.79;100.00
54369;BME280;40266;52.434;17.056;2023-02-12T08:19:34;102649.55;;;2.85;100.00
54369;BME280;40266;52.434;17.056;2023-02-12T08:22:17;102650.69;;;2.91;100.00
54369;BME280;40266;52.434;17.056;2023-02-12T08:25:00;102653.41;;;2.98;100.00
54369;BME280;40266;52.434;17.056;2023-02-12T08:27:43;102653.27;;;3.06;100.00
54369;BME280;40266;52.434;17.056;2023-02-12T08:30:26;102651.95;;;3.11;100.00
54369;BME280;40266;52.434;17.056;2023-02-12T08:33:08;102654.14;;;3.14;99.98
54369;BME280;40266;52.434;17.056;2023-02-12T08:36:03;102658.98;;;3.18;100.00
54369;BME280;40266;52.434;17.056;2023-02-12T08:38:47;102662.95;;;3.22;99.97
54369;BME280;40266;52.434;17.056;2023-02-12T08:41:30;102662.96;;;3.26;100.00
54369;BME280;40266;52.434;17.056;2023-02-12T08:44:14;102663.27;;;3.29;99.98
54369;BME280;40266;52.434;17.056;2023-02-12T08:46:58;102661.13;;;3.31;99.75
54369;BME280;40266;52.434;17.056;2023-02-12T08:49:41;102659.20;;;3.35;99.93
54369;BME280;40266;52.434;17.056;2023-02-12T08:52:24;102659.66;;;3.41;99.91
54369;BME280;40266;52.434;17.056;2023-02-12T08:55:07;102661.48;;;3.44;99.63
54369;BME280;40266;52.434;17.056;2023-02-12T08:57:50;102658.39;;;3.48;99.92
54369;BME280;40266;52.434;17.056;2023-02-12T09:00:36;102658.29;;;3.53;99.95
54369;BME280;40266;52.434;17.056;2023-02-12T09:03:22;102657.99;;;3.59;99.86
54369;BME280;40266;52.434;17.056;2023-02-12T09:06:07;102659.16;;;3.62;99.75
54369;BME280;40266;52.434;17.056;2023-02-12T09:08:51;102662.73;;;3.65;99.80
54369;BME280;40266;52.434;17.056;2023-02-12T09:11:35;102670.48;;;3.68;99.69
54369;BME280;40266;52.434;17.056;2023-02-12T09:14:19;102674.08;;;3.71;99.55
54369;BME280;40266;52.434;17.056;2023-02-12T09:17:08;102676.17;;;3.72;99.38
54369;BME280;40266;52.434;17.056;2023-02-12T09:19:53;102678.27;;;3.76;99.43
54369;BME280;40266;52.434;17.056;2023-02-12T09:22:36;102679.61;;;3.79;99.53
54369;BME280;40266;52.434;17.056;2023-02-12T09:25:20;102685.63;;;3.83;99.41
54369;BME280;40266;52.434;17.056;2023-02-12T09:28:03;102689.97;;;3.84;99.30
54369;BME280;40266;52.434;17.056;2023-02-12T09:30:46;102694.33;;;3.84;99.44
54369;BME280;40266;52.434;17.056;2023-02-12T09:33:29;102696.45;;;3.85;99.44
54369;BME280;40266;52.434;17.056;2023-02-12T09:36:14;102702.98;;;3.89;99.59
54369;BME280;40266;52.434;17.056;2023-02-12T09:38:58;102703.78;;;3.91;99.43
54369;BME280;40266;52.434;17.056;2023-02-12T09:44:55;102699.07;;;3.94;99.15
54369;BME280;40266;52.434;17.056;2023-02-12T09:50:45;102698.69;;;4.01;99.29
54369;BME280;40266;52.434;17.056;2023-02-12T09:53:31;102700.73;;;4.05;99.33
54369;BME280;40266;52.434;17.056;2023-02-12T09:56:19;102696.56;;;4.09;99.44
54369;BME280;40266;52.434;17.056;2023-02-12T09:59:06;102687.42;;;4.14;99.54
54369;BME280;40266;52.434;17.056;2023-02-12T10:01:49;102690.42;;;4.15;99.10
54369;BME280;40266;52.434;17.056;2023-02-12T10:04:32;102688.80;;;4.13;99.16
54369;BME280;40266;52.434;17.056;2023-02-12T10:13:07;102682.31;;;4.15;99.19
54369;BME280;40266;52.434;17.056;2023-02-12T10:27:54;102681.44;;;4.19;98.91
54369;BME280;40266;52.434;17.056;2023-02-12T10:31:06;102682.02;;;4.20;99.14
54369;BME280;40266;52.434;17.056;2023-02-12T10:33:49;102682.43;;;4.22;99.18
54369;BME280;40266;52.434;17.056;2023-02-12T10:36:44;102687.88;;;4.25;99.22
54369;BME280;40266;52.434;17.056;2023-02-12T10:39:34;102688.65;;;4.31;99.55
54369;BME280;40266;52.434;17.056;2023-02-12T10:42:28;102682.83;;;4.36;99.64
54369;BME280;40266;52.434;17.056;2023-02-12T10:45:18;102681.41;;;4.44;99.73
54369;BME280;40266;52.434;17.056;2023-02-12T10:53:49;102681.68;;;4.69;99.95
54369;BME280;40266;52.434;17.056;2023-02-12T10:56:35;102671.12;;;4.78;100.00
54369;BME280;40266;52.434;17.056;2023-02-12T10:59:22;102672.52;;;4.82;99.88
54369;BME280;40266;52.434;17.056;2023-02-12T11:05:24;102670.31;;;4.98;100.00
54369;BME280;40266;52.434;17.056;2023-02-12T11:08:13;102665.64;;;5.02;99.89
54369;BME280;40266;52.434;17.056;2023-02-12T11:11:15;102671.88;;;5.07;100.00
54369;BME280;40266;52.434;17.056;2023-02-12T11:14:04;102670.01;;;5.13;99.99
54369;BME280;40266;52.434;17.056;2023-02-12T11:16:59;102670.45;;;5.15;100.00
54369;BME280;40266;52.434;17.056;2023-02-12T11:19:44;102666.75;;;5.18;100.00
54369;BME280;40266;52.434;17.056;2023-02-12T11:22:27;102667.21;;;5.21;100.00
54369;BME280;40266;52.434;17.056;2023-02-12T11:25:14;102668.10;;;5.22;100.00
54369;BME280;40266;52.434;17.056;2023-02-12T11:30:54;102661.03;;;5.23;100.00
54369;BME280;40266;52.434;17.056;2023-02-12T11:33:38;102664.31;;;5.23;100.00
54369;BME280;40266;52.434;17.056;2023-02-12T11:36:24;102664.41;;;5.21;100.00
54369;BME280;40266;52.434;17.056;2023-02-12T11:39:19;102660.44;;;5.21;100.00
54369;BME280;40266;52.434;17.056;2023-02-12T11:42:06;102659.26;;;5.22;100.00
54369;BME280;40266;52.434;17.056;2023-02-12T11:44:58;102655.14;;;5.23;100.00
54369;BME280;40266;52.434;17.056;2023-02-12T11:47:41;102650.14;;;5.24;100.00
54369;BME280;40266;52.434;17.056;2023-02-12T11:50:28;102650.64;;;5.23;100.00
54369;BME280;40266;52.434;17.056;2023-02-12T11:53:22;102652.52;;;5.22;100.00
54369;BME280;40266;52.434;17.056;2023-02-12T11:56:13;102649.15;;;5.20;100.00
54369;BME280;40266;52.434;17.056;2023-02-12T11:59:11;102653.23;;;5.18;100.00
54369;BME280;40266;52.434;17.056;2023-02-12T12:02:23;102652.48;;;5.17;100.00
54369;BME280;40266;52.434;17.056;2023-02-12T12:05:14;102654.54;;;5.16;100.00
54369;BME280;40266;52.434;17.056;2023-02-12T12:08:04;102655.23;;;5.16;100.00
54369;BME280;40266;52.434;17.056;2023-02-12T12:10:56;102646.50;;;5.14;100.00
54369;BME280;40266;52.434;17.056;2023-02-12T12:13:47;102653.08;;;5.14;100.00
54369;BME280;40266;52.434;17.056;2023-02-12T12:22:39;102655.26;;;5.12;100.00
54369;BME280;40266;52.434;17.056;2023-02-12T12:25:28;102651.19;;;5.10;100.00
54369;BME280;40266;52.434;17.056;2023-02-12T12:31:16;102641.38;;;5.06;100.00
54369;BME280;40266;52.434;17.056;2023-02-12T12:34:19;102637.83;;;5.09;100.00
54369;BME280;40266;52.434;17.056;2023-02-12T12:37:26;102636.25;;;5.13;100.00
54369;BME280;40266;52.434;17.056;2023-02-12T12:40:25;102635.34;;;5.17;100.00
54369;BME280;40266;52.434;17.056;2023-02-12T12:43:19;102630.52;;;5.22;100.00
54369;BME280;40266;52.434;17.056;2023-02-12T12:49:27;102624.93;;;5.36;100.00
54369;BME280;40266;52.434;17.056;2023-02-12T12:52:20;102614.80;;;5.43;100.00
54369;BME280;40266;52.434;17.056;2023-02-12T12:58:24;102617.11;;;5.56;100.00
54369;BME280;40266;52.434;17.056;2023-02-12T13:07:49;102615.17;;;5.70;100.00
54369;BME280;40266;52.434;17.056;2023-02-12T13:13:32;102598.05;;;5.71;100.00
54369;BME280;40266;52.434;17.056;2023-02-12T13:16:29;102593.74;;;5.71;100.00
54369;BME280;40266;52.434;17.056;2023-02-12T13:19:31;102597.45;;;5.74;100.00
54369;BME280;40266;52.434;17.056;2023-02-12T13:22:28;102587.42;;;5.74;100.00
54369;BME280;40266;52.434;17.056;2023-02-12T13:25:33;102579.16;;;5.76;100.00
54369;BME280;40266;52.434;17.056;2023-02-12T13:28:29;102577.03;;;5.76;100.00
54369;BME280;40266;52.434;17.056;2023-02-12T13:31:20;102587.88;;;5.78;100.00
54369;BME280;40266;52.434;17.056;2023-02-12T13:34:16;102586.19;;;5.80;100.00
54369;BME280;40266;52.434;17.056;2023-02-12T13:37:02;102584.83;;;5.80;100.00
54369;BME280;40266;52.434;17.056;2023-02-12T13:39:48;102587.12;;;5.81;100.00
54369;BME280;40266;52.434;17.056;2023-02-12T13:46:04;102588.77;;;5.84;100.00
54369;BME280;40266;52.434;17.056;2023-02-12T14:01:40;102587.00;;;5.78;99.94
54369;BME280;40266;52.434;17.056;2023-02-12T14:07:15;102591.50;;;5.72;99.97
54369;BME280;40266;52.434;17.056;2023-02-12T14:10:01;102593.52;;;5.70;99.97
54369;BME280;40266;52.434;17.056;2023-02-12T14:12:44;102593.48;;;5.68;99.92
54369;BME280;40266;52.434;17.056;2023-02-12T14:15:31;102591.86;;;5.67;99.96
54369;BME280;40266;52.434;17.056;2023-02-12T14:18:44;102591.31;;;5.66;100.00
54369;BME280;40266;52.434;17.056;2023-02-12T14:27:34;102601.71;;;5.61;100.00
54369;BME280;40266;52.434;17.056;2023-02-12T14:39:04;102605.68;;;5.56;100.00
54369;BME280;40266;52.434;17.056;2023-02-12T14:41:49;102600.63;;;5.55;100.00
54369;BME280;40266;52.434;17.056;2023-02-12T14:44:57;102600.57;;;5.53;100.00
54369;BME280;40266;52.434;17.056;2023-02-12T14:50:30;102604.58;;;5.48;100.00
54369;BME280;40266;52.434;17.056;2023-02-12T14:53:28;102609.02;;;5.46;100.00
54369;BME280;40266;52.434;17.056;2023-02-12T14:56:18;102612.30;;;5.46;100.00
54369;BME280;40266;52.434;17.056;2023-02-12T14:59:02;102610.36;;;5.45;100.00
54369;BME280;40266;52.434;17.056;2023-02-12T15:01:47;102608.91;;;5.44;100.00
54369;BME280;40266;52.434;17.056;2023-02-12T15:04:36;102614.05;;;5.42;100.00
54369;BME280;40266;52.434;17.056;2023-02-12T15:07:26;102613.08;;;5.39;100.00
54369;BME280;40266;52.434;17.056;2023-02-12T15:10:33;102613.05;;;5.38;100.00
54369;BME280;40266;52.434;17.056;2023-02-12T15:16:11;102613.95;;;5.35;100.00
54369;BME280;40266;52.434;17.056;2023-02-12T15:21:46;102603.08;;;5.30;100.00
54369;BME280;40266;52.434;17.056;2023-02-12T15:24:30;102610.95;;;5.27;100.00
54369;BME280;40266;52.434;17.056;2023-02-12T15:27:13;102613.66;;;5.26;100.00
54369;BME280;40266;52.434;17.056;2023-02-12T15:29:57;102606.48;;;5.23;100.00
54369;BME280;40266;52.434;17.056;2023-02-12T15:32:41;102607.27;;;5.21;100.00
54369;BME280;40266;52.434;17.056;2023-02-12T15:35:32;102607.23;;;5.20;100.00
54369;BME280;40266;52.434;17.056;2023-02-12T15:38:26;102601.05;;;5.17;100.00
54369;BME280;40266;52.434;17.056;2023-02-12T15:41:27;102601.88;;;5.16;100.00
54369;BME280;40266;52.434;17.056;2023-02-12T15:44:29;102600.61;;;5.14;100.00
54369;BME280;40266;52.434;17.056;2023-02-12T15:47:14;102595.70;;;5.13;100.00
54369;BME280;40266;52.434;17.056;2023-02-12T15:49:59;102596.48;;;5.11;100.00
54369;BME280;40266;52.434;17.056;2023-02-12T15:52:44;102595.05;;;5.09;100.00
54369;BME280;40266;52.434;17.056;2023-02-12T15:55:34;102595.19;;;5.08;100.00
54369;BME280;40266;52.434;17.056;2023-02-12T15:58:40;102599.98;;;5.06;100.00
54369;BME280;40266;52.434;17.056;2023-02-12T16:01:28;102602.70;;;5.05;100.00
54369;BME280;40266;52.434;17.056;2023-02-12T16:04:12;102602.20;;;5.05;100.00
54369;BME280;40266;52.434;17.056;2023-02-12T16:06:55;102605.80;;;5.04;100.00
54369;BME280;40266;52.434;17.056;2023-02-12T16:09:39;102608.71;;;5.04;100.00
54369;BME280;40266;52.434;17.056;2023-02-12T16:12:29;102605.17;;;5.02;100.00
54369;BME280;40266;52.434;17.056;2023-02-12T16:15:30;102602.70;;;5.01;100.00
54369;BME280;40266;52.434;17.056;2023-02-12T16:18:22;102599.01;;;4.99;100.00
54369;BME280;40266;52.434;17.056;2023-02-12T16:21:12;102606.08;;;4.98;100.00
54369;BME280;40266;52.434;17.056;2023-02-12T16:23:57;102606.71;;;4.96;100.00
54369;BME280;40266;52.434;17.056;2023-02-12T16:26:45;102613.29;;;4.96;100.00
54369;BME280;40266;52.434;17.056;2023-02-12T16:29:29;102611.71;;;4.96;100.00
54369;BME280;40266;52.434;17.056;2023-02-12T16:32:33;102615.33;;;4.95;100.00
54369;BME280;40266;52.434;17.056;2023-02-12T16:41:26;102621.13;;;4.93;100.00
54369;BME280;40266;52.434;17.056;2023-02-12T16:44:29;102622.85;;;4.92;100.00
54369;BME280;40266;52.434;17.056;2023-02-12T16:47:32;102623.41;;;4.94;100.00
54369;BME280;40266;52.434;17.056;2023-02-12T16:50:16;102620.79;;;4.93;100.00
54369;BME280;40266;52.434;17.056;2023-02-12T16:53:02;102621.48;;;4.93;100.00
54369;BME280;40266;52.434;17.056;2023-02-12T16:55:45;102629.06;;;4.92;100.00
54369;BME280;40266;52.434;17.056;2023-02-12T16:58:28;102627.79;;;4.90;100.00
54369;BME280;40266;52.434;17.056;2023-02-12T17:01:19;102625.84;;;4.89;100.00
54369;BME280;40266;52.434;17.056;2023-02-12T17:04:07;102627.84;;;4.87;100.00
54369;BME280;40266;52.434;17.056;2023-02-12T17:06:50;102628.31;;;4.86;100.00
54369;BME280;40266;52.434;17.056;2023-02-12T17:09:33;102631.95;;;4.86;100.00
54369;BME280;40266;52.434;17.056;2023-02-12T17:12:16;102627.61;;;4.85;100.00
54369;BME280;40266;52.434;17.056;2023-02-12T17:15:03;102629.62;;;4.83;100.00
54369;BME280;40266;52.434;17.056;2023-02-12T17:17:46;102630.95;;;4.82;100.00
54369;BME280;40266;52.434;17.056;2023-02-12T17:20:29;102628.98;;;4.80;100.00
54369;BME280;40266;52.434;17.056;2023-02-12T17:23:12;102626.67;;;4.79;100.00
54369;BME280;40266;52.434;17.056;2023-02-12T17:25:55;102629.41;;;4.78;100.00
54369;BME280;40266;52.434;17.056;2023-02-12T17:28:38;102629.55;;;4.77;100.00
54369;BME280;40266;52.434;17.056;2023-02-12T17:31:23;102631.25;;;4.76;100.00
54369;BME280;40266;52.434;17.056;2023-02-12T17:34:06;102638.11;;;4.75;100.00
54369;BME280;40266;52.434;17.056;2023-02-12T17:36:49;102640.99;;;4.73;100.00
54369;BME280;40266;52.434;17.056;2023-02-12T17:39:32;102642.00;;;4.73;100.00
54369;BME280;40266;52.434;17.056;2023-02-12T17:42:15;102634.54;;;4.72;100.00
54369;BME280;40266;52.434;17.056;2023-02-12T17:44:58;102640.59;;;4.71;100.00
54369;BME280;40266;52.434;17.056;2023-02-12T17:47:41;102644.85;;;4.70;100.00
54369;BME280;40266;52.434;17.056;2023-02-12T17:50:25;102641.35;;;4.69;100.00
54369;BME280;40266;52.434;17.056;2023-02-12T17:53:09;102640.79;;;4.68;100.00
54369;BME280;40266;52.434;17.056;2023-02-12T17:55:52;102640.46;;;4.69;100.00
54369;BME280;40266;52.434;17.056;2023-02-12T17:58:35;102640.61;;;4.68;100.00
54369;BME280;40266;52.434;17.056;2023-02-12T18:01:20;102642.66;;;4.67;100.00
54369;BME280;40266;52.434;17.056;2023-02-12T18:04:03;102641.61;;;4.67;100.00
54369;BME280;40266;52.434;17.056;2023-02-12T18:06:46;102636.39;;;4.66;100.00
54369;BME280;40266;52.434;17.056;2023-02-12T18:09:30;102637.59;;;4.66;100.00
54369;BME280;40266;52.434;17.056;2023-02-12T18:12:13;102635.36;;;4.66;100.00
54369;BME280;40266;52.434;17.056;2023-02-12T18:15:00;102634.13;;;4.65;100.00
54369;BME280;40266;52.434;17.056;2023-02-12T18:17:44;102629.10;;;4.65;100.00
54369;BME280;40266;52.434;17.056;2023-02-12T18:20:27;102626.48;;;4.64;100.00
54369;BME280;40266;52.434;17.056;2023-02-12T18:23:10;102628.04;;;4.65;100.00
54369;BME280;40266;52.434;17.056;2023-02-12T18:25:53;102627.84;;;4.64;100.00
54369;BME280;40266;52.434;17.056;2023-02-12T18:28:37;102631.44;;;4.63;100.00
54369;BME280;40266;52.434;17.056;2023-02-12T18:31:20;102623.48;;;4.63;100.00
54369;BME280;40266;52.434;17.056;2023-02-12T18:34:05;102625.20;;;4.63;100.00
54369;BME280;40266;52.434;17.056;2023-02-12T18:36:48;102623.66;;;4.63;100.00
54369;BME280;40266;52.434;17.056;2023-02-12T18:39:30;102622.23;;;4.62;100.00
54369;BME280;40266;52.434;17.056;2023-02-12T18:42:14;102624.11;;;4.61;100.00